sensor_id;sensor_type;location;lat;lon;timestamp;P1;durP1;ratioP1;P2;durP2;ratioP2
17741;SDS011;8993;51.822;-2.268;2023-11-19T00:02:46;74.64;;;8.87;;
17741;SDS011;8993;51.822;-2.268;2023-11-19T00:07:50;73.80;;;8.84;;
17741;SDS011;8993;51.822;-2.268;2023-11-19T00:12:55;76.55;;;9.61;;
17741;SDS011;8993;51.822;-2.268;2023-11-19T00:18:00;83.96;;;9.87;;
17741;SDS011;8993;51.822;-2.268;2023-11-19T00:23:05;77.90;;;9.16;;
17741;SDS011;8993;51.822;-2.268;2023-11-19T00:28:09;76.50;;;9.27;;
17741;SDS011;8993;51.822;-2.268;2023-11-19T00:33:14;84.04;;;9.96;;
17741;SDS011;8993;51.822;-2.268;2023-11-19T00:38:19;67.63;;;8.42;;
17741;SDS011;8993;51.822;-2.268;2023-11-19T00:43:23;71.03;;;8.84;;
17741;SDS011;8993;51.822;-2.268;2023-11-19T00:48:28;75.87;;;9.09;;
17741;SDS011;8993;51.822;-2.268;2023-11-19T00:53:32;71.97;;;9.05;;
17741;SDS011;8993;51.822;-2.268;2023-11-19T00:58:37;82.62;;;9.22;;
17741;SDS011;8993;51.822;-2.268;2023-11-19T01:03:41;72.25;;;8.42;;
17741;SDS011;8993;51.822;-2.268;2023-11-19T01:08:46;74.63;;;9.29;;
17741;SDS011;8993;51.822;-2.268;2023-11-19T01:13:51;73.39;;;8.80;;
17741;SDS011;8993;51.822;-2.268;2023-11-19T01:18:56;73.83;;;8.57;;
17741;SDS011;8993;51.822;-2.268;2023-11-19T01:24:00;73.59;;;8.59;;
17741;SDS011;8993;51.822;-2.268;2023-11-19T01:29:05;78.02;;;8.64;;
17741;SDS011;8993;51.822;-2.268;2023-11-19T01:34:10;76.08;;;8.76;;
17741;SDS011;8993;51.822;-2.268;2023-11-19T01:39:14;70.78;;;8.46;;
17741;SDS011;8993;51.822;-2.268;2023-11-19T01:44:18;69.48;;;8.60;;
17741;SDS011;8993;51.822;-2.268;2023-11-19T01:49:23;71.31;;;8.49;;
17741;SDS011;8993;51.822;-2.268;2023-11-19T01:54:28;69.99;;;8.88;;
17741;SDS011;8993;51.822;-2.268;2023-11-19T01:59:33;68.86;;;8.50;;
17741;SDS011;8993;51.822;-2.268;2023-11-19T02:04:37;69.89;;;8.67;;
17741;SDS011;8993;51.822;-2.268;2023-11-19T02:09:42;67.31;;;8.18;;
17741;SDS011;8993;51.822;-2.268;2023-11-19T02:14:46;72.18;;;8.48;;
17741;SDS011;8993;51.822;-2.268;2023-11-19T02:29:54;65.60;;;8.13;;
17741;SDS011;8993;51.822;-2.268;2023-11-19T02:34:58;67.01;;;7.61;;
17741;SDS011;8993;51.822;-2.268;2023-11-19T02:40:03;66.42;;;9.16;;
17741;SDS011;8993;51.822;-2.268;2023-11-19T02:45:08;69.19;;;8.85;;
17741;SDS011;8993;51.822;-2.268;2023-11-19T02:50:11;67.43;;;7.98;;
17741;SDS011;8993;51.822;-2.268;2023-11-19T02:55:17;70.29;;;8.11;;
17741;SDS011;8993;51.822;-2.268;2023-11-19T03:00:22;75.43;;;8.40;;
17741;SDS011;8993;51.822;-2.268;2023-11-19T03:05:26;72.30;;;8.45;;
17741;SDS011;8993;51.822;-2.268;2023-11-19T03:10:30;79.16;;;9.43;;
17741;SDS011;8993;51.822;-2.268;2023-11-19T03:15:35;76.34;;;9.14;;
17741;SDS011;8993;51.822;-2.268;2023-11-19T03:20:40;73.74;;;8.34;;
17741;SDS011;8993;51.822;-2.268;2023-11-19T03:25:44;67.99;;;7.38;;
17741;SDS011;8993;51.822;-2.268;2023-11-19T03:30:48;52.77;;;6.62;;
17741;SDS011;8993;51.822;-2.268;2023-11-19T03:35:53;47.05;;;4.58;;
17741;SDS011;8993;51.822;-2.268;2023-11-19T03:40:57;34.36;;;3.43;;
17741;SDS011;8993;51.822;-2.268;2023-11-19T03:46:02;28.23;;;2.99;;
17741;SDS011;8993;51.822;-2.268;2023-11-19T03:51:06;28.41;;;2.95;;
17741;SDS011;8993;51.822;-2.268;2023-11-19T03:56:10;28.01;;;2.56;;
17741;SDS011;8993;51.822;-2.268;2023-11-19T04:01:16;27.53;;;3.11;;
17741;SDS011;8993;51.822;-2.268;2023-11-19T04:06:20;33.03;;;3.62;;
17741;SDS011;8993;51.822;-2.268;2023-11-19T04:11:25;37.94;;;4.21;;
17741;SDS011;8993;51.822;-2.268;2023-11-19T04:16:30;41.44;;;4.24;;
17741;SDS011;8993;51.822;-2.268;2023-11-19T04:21:33;44.30;;;4.78;;
17741;SDS011;8993;51.822;-2.268;2023-11-19T04:26:40;43.29;;;4.83;;
17741;SDS011;8993;51.822;-2.268;2023-11-19T04:31:41;47.41;;;5.42;;
17741;SDS011;8993;51.822;-2.268;2023-11-19T04:36:45;48.42;;;5.63;;
17741;SDS011;8993;51.822;-2.268;2023-11-19T04:41:50;57.48;;;5.66;;
17741;SDS011;8993;51.822;-2.268;2023-11-19T04:46:53;60.50;;;6.54;;
17741;SDS011;8993;51.822;-2.268;2023-11-19T04:51:57;58.59;;;6.21;;
17741;SDS011;8993;51.822;-2.268;2023-11-19T04:57:01;58.53;;;6.49;;
17741;SDS011;8993;51.822;-2.268;2023-11-19T05:02:05;56.33;;;6.42;;
17741;SDS011;8993;51.822;-2.268;2023-11-19T05:07:09;57.39;;;6.62;;
17741;SDS011;8993;51.822;-2.268;2023-11-19T05:12:13;58.25;;;6.80;;
17741;SDS011;8993;51.822;-2.268;2023-11-19T05:17:17;64.48;;;7.33;;
17741;SDS011;8993;51.822;-2.268;2023-11-19T05:22:21;69.03;;;7.89;;
17741;SDS011;8993;51.822;-2.268;2023-11-19T05:27:25;73.55;;;8.41;;
17741;SDS011;8993;51.822;-2.268;2023-11-19T05:32:29;70.13;;;8.29;;
17741;SDS011;8993;51.822;-2.268;2023-11-19T05:37:33;74.27;;;8.54;;
17741;SDS011;8993;51.822;-2.268;2023-11-19T05:42:37;74.38;;;8.51;;
17741;SDS011;8993;51.822;-2.268;2023-11-19T05:47:43;77.61;;;8.78;;
17741;SDS011;8993;51.822;-2.268;2023-11-19T05:52:47;63.62;;;7.81;;
17741;SDS011;8993;51.822;-2.268;2023-11-19T05:57:51;66.79;;;8.05;;
17741;SDS011;8993;51.822;-2.268;2023-11-19T06:02:56;67.57;;;7.58;;
17741;SDS011;8993;51.822;-2.268;2023-11-19T06:08:00;68.28;;;7.95;;
17741;SDS011;8993;51.822;-2.268;2023-11-19T06:13:05;78.47;;;7.78;;
17741;SDS011;8993;51.822;-2.268;2023-11-19T06:18:09;67.37;;;7.97;;
17741;SDS011;8993;51.822;-2.268;2023-11-19T06:23:13;69.65;;;7.97;;
17741;SDS011;8993;51.822;-2.268;2023-11-19T06:28:17;70.04;;;8.09;;
17741;SDS011;8993;51.822;-2.268;2023-11-19T06:33:21;66.44;;;7.20;;
17741;SDS011;8993;51.822;-2.268;2023-11-19T06:38:26;55.58;;;6.53;;
17741;SDS011;8993;51.822;-2.268;2023-11-19T06:43:30;56.26;;;6.74;;
17741;SDS011;8993;51.822;-2.268;2023-11-19T06:48:35;57.54;;;6.68;;
17741;SDS011;8993;51.822;-2.268;2023-11-19T06:53:39;58.06;;;6.63;;
17741;SDS011;8993;51.822;-2.268;2023-11-19T06:58:43;61.41;;;7.08;;
17741;SDS011;8993;51.822;-2.268;2023-11-19T07:03:47;54.93;;;6.37;;
17741;SDS011;8993;51.822;-2.268;2023-11-19T07:08:52;52.11;;;6.57;;
17741;SDS011;8993;51.822;-2.268;2023-11-19T07:13:56;48.73;;;6.16;;
17741;SDS011;8993;51.822;-2.268;2023-11-19T07:19:01;46.34;;;5.14;;
17741;SDS011;8993;51.822;-2.268;2023-11-19T07:24:05;38.63;;;4.21;;
17741;SDS011;8993;51.822;-2.268;2023-11-19T07:29:09;33.61;;;3.86;;
17741;SDS011;8993;51.822;-2.268;2023-11-19T07:34:13;32.04;;;3.52;;
17741;SDS011;8993;51.822;-2.268;2023-11-19T07:39:17;38.96;;;4.26;;
17741;SDS011;8993;51.822;-2.268;2023-11-19T07:49:22;47.16;;;5.25;;
17741;SDS011;8993;51.822;-2.268;2023-11-19T07:54:25;54.37;;;6.24;;
17741;SDS011;8993;51.822;-2.268;2023-11-19T07:59:29;57.53;;;6.62;;
17741;SDS011;8993;51.822;-2.268;2023-11-19T08:04:33;59.30;;;6.47;;
17741;SDS011;8993;51.822;-2.268;2023-11-19T08:09:37;52.64;;;6.66;;
17741;SDS011;8993;51.822;-2.268;2023-11-19T08:14:41;63.82;;;6.66;;
17741;SDS011;8993;51.822;-2.268;2023-11-19T08:19:46;56.13;;;6.66;;
17741;SDS011;8993;51.822;-2.268;2023-11-19T08:24:49;61.08;;;7.92;;
17741;SDS011;8993;51.822;-2.268;2023-11-19T08:29:53;59.20;;;6.65;;
17741;SDS011;8993;51.822;-2.268;2023-11-19T08:34:57;59.91;;;7.37;;
17741;SDS011;8993;51.822;-2.268;2023-11-19T08:40:01;56.36;;;6.69;;
17741;SDS011;8993;51.822;-2.268;2023-11-19T08:45:05;57.05;;;6.47;;
17741;SDS011;8993;51.822;-2.268;2023-11-19T08:50:09;56.53;;;6.85;;
17741;SDS011;8993;51.822;-2.268;2023-11-19T08:55:14;62.51;;;6.83;;
17741;SDS011;8993;51.822;-2.268;2023-11-19T09:00:18;60.02;;;6.57;;
17741;SDS011;8993;51.822;-2.268;2023-11-19T09:05:22;64.55;;;7.12;;
17741;SDS011;8993;51.822;-2.268;2023-11-19T09:10:27;61.56;;;7.08;;
17741;SDS011;8993;51.822;-2.268;2023-11-19T09:15:33;57.64;;;6.18;;
17741;SDS011;8993;51.822;-2.268;2023-11-19T09:20:37;56.05;;;6.29;;
17741;SDS011;8993;51.822;-2.268;2023-11-19T09:25:41;50.15;;;5.47;;
17741;SDS011;8993;51.822;-2.268;2023-11-19T09:30:46;55.69;;;5.89;;
17741;SDS011;8993;51.822;-2.268;2023-11-19T09:35:50;52.02;;;5.62;;
17741;SDS011;8993;51.822;-2.268;2023-11-19T09:40:55;49.05;;;5.33;;
17741;SDS011;8993;51.822;-2.268;2023-11-19T09:45:59;49.75;;;5.80;;
17741;SDS011;8993;51.822;-2.268;2023-11-19T09:51:04;52.55;;;6.21;;
17741;SDS011;8993;51.822;-2.268;2023-11-19T09:56:08;53.56;;;6.04;;
17741;SDS011;8993;51.822;-2.268;2023-11-19T10:01:12;51.43;;;5.82;;
17741;SDS011;8993;51.822;-2.268;2023-11-19T10:06:16;50.96;;;5.62;;
17741;SDS011;8993;51.822;-2.268;2023-11-19T10:11:21;45.37;;;5.31;;
17741;SDS011;8993;51.822;-2.268;2023-11-19T10:16:28;43.72;;;5.01;;
17741;SDS011;8993;51.822;-2.268;2023-11-19T10:21:32;37.61;;;3.97;;
17741;SDS011;8993;51.822;-2.268;2023-11-19T10:26:35;40.64;;;4.55;;
17741;SDS011;8993;51.822;-2.268;2023-11-19T10:31:38;41.38;;;4.91;;
17741;SDS011;8993;51.822;-2.268;2023-11-19T10:36:43;46.37;;;5.57;;
17741;SDS011;8993;51.822;-2.268;2023-11-19T10:41:47;49.10;;;5.72;;
17741;SDS011;8993;51.822;-2.268;2023-11-19T10:46:51;46.17;;;5.54;;
17741;SDS011;8993;51.822;-2.268;2023-11-19T10:51:56;43.28;;;5.29;;
17741;SDS011;8993;51.822;-2.268;2023-11-19T10:57:01;46.73;;;5.73;;
17741;SDS011;8993;51.822;-2.268;2023-11-19T11:02:06;54.07;;;6.35;;
17741;SDS011;8993;51.822;-2.268;2023-11-19T11:07:09;51.76;;;6.00;;
17741;SDS011;8993;51.822;-2.268;2023-11-19T11:12:13;56.49;;;6.63;;
17741;SDS011;8993;51.822;-2.268;2023-11-19T11:17:17;51.54;;;6.04;;
17741;SDS011;8993;51.822;-2.268;2023-11-19T11:22:21;53.67;;;5.80;;
17741;SDS011;8993;51.822;-2.268;2023-11-19T11:27:34;48.40;;;6.48;;
17741;SDS011;8993;51.822;-2.268;2023-11-19T11:32:32;46.32;;;5.71;;
17741;SDS011;8993;51.822;-2.268;2023-11-19T11:37:36;40.77;;;4.81;;
17741;SDS011;8993;51.822;-2.268;2023-11-19T11:42:38;36.38;;;4.84;;
17741;SDS011;8993;51.822;-2.268;2023-11-19T11:53:13;31.51;;;3.55;;
17741;SDS011;8993;51.822;-2.268;2023-11-19T11:57:51;34.67;;;4.01;;
17741;SDS011;8993;51.822;-2.268;2023-11-19T12:02:56;32.19;;;3.69;;
17741;SDS011;8993;51.822;-2.268;2023-11-19T12:08:01;31.94;;;3.48;;
17741;SDS011;8993;51.822;-2.268;2023-11-19T12:13:05;30.97;;;3.36;;
17741;SDS011;8993;51.822;-2.268;2023-11-19T12:18:10;25.35;;;2.86;;
17741;SDS011;8993;51.822;-2.268;2023-11-19T12:23:14;25.26;;;3.08;;
17741;SDS011;8993;51.822;-2.268;2023-11-19T12:28:18;26.05;;;2.81;;
17741;SDS011;8993;51.822;-2.268;2023-11-19T12:33:21;24.22;;;2.45;;
17741;SDS011;8993;51.822;-2.268;2023-11-19T12:38:26;20.31;;;2.25;;
17741;SDS011;8993;51.822;-2.268;2023-11-19T12:43:30;19.45;;;2.11;;
17741;SDS011;8993;51.822;-2.268;2023-11-19T12:48:33;22.40;;;2.53;;
17741;SDS011;8993;51.822;-2.268;2023-11-19T12:53:47;22.55;;;2.41;;
17741;SDS011;8993;51.822;-2.268;2023-11-19T12:58:42;19.76;;;2.23;;
17741;SDS011;8993;51.822;-2.268;2023-11-19T13:03:46;28.03;;;2.56;;
17741;SDS011;8993;51.822;-2.268;2023-11-19T13:08:50;27.08;;;3.10;;
17741;SDS011;8993;51.822;-2.268;2023-11-19T13:19:14;25.40;;;3.11;;
17741;SDS011;8993;51.822;-2.268;2023-11-19T13:23:58;23.77;;;3.15;;
17741;SDS011;8993;51.822;-2.268;2023-11-19T13:29:02;22.43;;;2.64;;
17741;SDS011;8993;51.822;-2.268;2023-11-19T13:34:06;21.02;;;2.50;;
17741;SDS011;8993;51.822;-2.268;2023-11-19T13:39:10;19.77;;;2.48;;
17741;SDS011;8993;51.822;-2.268;2023-11-19T13:44:14;25.14;;;3.05;;
17741;SDS011;8993;51.822;-2.268;2023-11-19T13:49:18;25.94;;;3.16;;
17741;SDS011;8993;51.822;-2.268;2023-11-19T13:54:24;25.97;;;3.17;;
17741;SDS011;8993;51.822;-2.268;2023-11-19T13:59:30;24.05;;;3.09;;
17741;SDS011;8993;51.822;-2.268;2023-11-19T14:04:34;23.95;;;2.74;;
17741;SDS011;8993;51.822;-2.268;2023-11-19T14:09:38;23.81;;;2.87;;
17741;SDS011;8993;51.822;-2.268;2023-11-19T14:14:43;23.17;;;2.93;;
17741;SDS011;8993;51.822;-2.268;2023-11-19T14:19:49;27.66;;;3.23;;
17741;SDS011;8993;51.822;-2.268;2023-11-19T14:24:53;26.36;;;3.33;;
17741;SDS011;8993;51.822;-2.268;2023-11-19T14:29:57;30.33;;;3.31;;
17741;SDS011;8993;51.822;-2.268;2023-11-19T14:35:02;28.21;;;3.54;;
17741;SDS011;8993;51.822;-2.268;2023-11-19T14:40:07;27.81;;;3.31;;
17741;SDS011;8993;51.822;-2.268;2023-11-19T14:45:11;26.92;;;3.30;;
17741;SDS011;8993;51.822;-2.268;2023-11-19T14:50:15;22.55;;;2.86;;
17741;SDS011;8993;51.822;-2.268;2023-11-19T14:55:19;26.03;;;3.09;;
17741;SDS011;8993;51.822;-2.268;2023-11-19T15:00:23;26.63;;;3.07;;
17741;SDS011;8993;51.822;-2.268;2023-11-19T15:05:27;25.88;;;2.99;;
17741;SDS011;8993;51.822;-2.268;2023-11-19T15:10:31;28.17;;;3.12;;
17741;SDS011;8993;51.822;-2.268;2023-11-19T15:15:35;26.11;;;3.22;;
17741;SDS011;8993;51.822;-2.268;2023-11-19T15:20:39;22.48;;;2.81;;
17741;SDS011;8993;51.822;-2.268;2023-11-19T15:25:43;27.38;;;3.02;;
17741;SDS011;8993;51.822;-2.268;2023-11-19T15:30:47;25.49;;;3.15;;
17741;SDS011;8993;51.822;-2.268;2023-11-19T15:35:51;24.76;;;2.93;;
17741;SDS011;8993;51.822;-2.268;2023-11-19T15:40:55;26.43;;;3.05;;
17741;SDS011;8993;51.822;-2.268;2023-11-19T15:45:59;24.08;;;2.66;;
17741;SDS011;8993;51.822;-2.268;2023-11-19T15:51:04;26.48;;;3.48;;
17741;SDS011;8993;51.822;-2.268;2023-11-19T15:56:08;27.82;;;3.18;;
17741;SDS011;8993;51.822;-2.268;2023-11-19T16:01:13;27.16;;;3.24;;
17741;SDS011;8993;51.822;-2.268;2023-11-19T16:06:19;25.43;;;3.33;;
17741;SDS011;8993;51.822;-2.268;2023-11-19T16:11:23;28.97;;;3.51;;
17741;SDS011;8993;51.822;-2.268;2023-11-19T16:16:28;33.14;;;3.88;;
17741;SDS011;8993;51.822;-2.268;2023-11-19T16:21:33;27.93;;;3.58;;
17741;SDS011;8993;51.822;-2.268;2023-11-19T16:26:37;30.34;;;3.99;;
17741;SDS011;8993;51.822;-2.268;2023-11-19T16:31:41;29.58;;;3.58;;
17741;SDS011;8993;51.822;-2.268;2023-11-19T16:36:46;30.23;;;3.24;;
17741;SDS011;8993;51.822;-2.268;2023-11-19T16:41:51;27.61;;;3.31;;
17741;SDS011;8993;51.822;-2.268;2023-11-19T16:46:55;26.91;;;3.58;;
17741;SDS011;8993;51.822;-2.268;2023-11-19T16:51:59;24.26;;;3.14;;
17741;SDS011;8993;51.822;-2.268;2023-11-19T16:57:03;30.70;;;4.03;;
17741;SDS011;8993;51.822;-2.268;2023-11-19T17:02:07;27.48;;;3.26;;
17741;SDS011;8993;51.822;-2.268;2023-11-19T17:07:11;26.95;;;3.44;;
17741;SDS011;8993;51.822;-2.268;2023-11-19T17:12:15;32.40;;;3.66;;
17741;SDS011;8993;51.822;-2.268;2023-11-19T17:17:19;28.01;;;3.42;;
17741;SDS011;8993;51.822;-2.268;2023-11-19T17:22:23;33.86;;;3.80;;
17741;SDS011;8993;51.822;-2.268;2023-11-19T17:27:27;25.76;;;3.19;;
17741;SDS011;8993;51.822;-2.268;2023-11-19T17:32:31;25.97;;;3.24;;
17741;SDS011;8993;51.822;-2.268;2023-11-19T17:37:35;31.62;;;3.77;;
17741;SDS011;8993;51.822;-2.268;2023-11-19T17:42:39;34.36;;;4.18;;
17741;SDS011;8993;51.822;-2.268;2023-11-19T17:47:43;26.38;;;3.56;;
17741;SDS011;8993;51.822;-2.268;2023-11-19T17:52:47;31.09;;;3.85;;
17741;SDS011;8993;51.822;-2.268;2023-11-19T17:57:51;34.58;;;3.95;;
17741;SDS011;8993;51.822;-2.268;2023-11-19T18:02:54;28.99;;;3.78;;
17741;SDS011;8993;51.822;-2.268;2023-11-19T18:07:58;24.44;;;3.18;;
17741;SDS011;8993;51.822;-2.268;2023-11-19T18:13:02;26.56;;;2.82;;
17741;SDS011;8993;51.822;-2.268;2023-11-19T18:18:08;33.49;;;3.79;;
17741;SDS011;8993;51.822;-2.268;2023-11-19T18:23:12;32.26;;;3.98;;
17741;SDS011;8993;51.822;-2.268;2023-11-19T18:28:16;31.75;;;3.95;;
17741;SDS011;8993;51.822;-2.268;2023-11-19T18:33:21;41.81;;;4.37;;
17741;SDS011;8993;51.822;-2.268;2023-11-19T18:38:25;39.78;;;4.59;;
17741;SDS011;8993;51.822;-2.268;2023-11-19T18:43:29;39.10;;;4.35;;
17741;SDS011;8993;51.822;-2.268;2023-11-19T18:48:34;35.22;;;4.47;;
17741;SDS011;8993;51.822;-2.268;2023-11-19T18:53:38;36.44;;;4.04;;
17741;SDS011;8993;51.822;-2.268;2023-11-19T18:58:43;30.78;;;3.30;;
17741;SDS011;8993;51.822;-2.268;2023-11-19T19:03:47;29.50;;;3.76;;
17741;SDS011;8993;51.822;-2.268;2023-11-19T19:08:51;33.04;;;3.85;;
17741;SDS011;8993;51.822;-2.268;2023-11-19T19:13:55;35.57;;;4.16;;
17741;SDS011;8993;51.822;-2.268;2023-11-19T19:19:00;30.70;;;3.53;;
17741;SDS011;8993;51.822;-2.268;2023-11-19T19:24:04;32.27;;;3.97;;
17741;SDS011;8993;51.822;-2.268;2023-11-19T19:29:08;33.99;;;3.83;;
17741;SDS011;8993;51.822;-2.268;2023-11-19T19:34:12;38.45;;;4.62;;
17741;SDS011;8993;51.822;-2.268;2023-11-19T19:39:17;43.33;;;4.85;;
17741;SDS011;8993;51.822;-2.268;2023-11-19T19:44:21;33.05;;;4.15;;
17741;SDS011;8993;51.822;-2.268;2023-11-19T19:49:25;36.90;;;4.69;;
17741;SDS011;8993;51.822;-2.268;2023-11-19T19:54:29;38.04;;;4.45;;
17741;SDS011;8993;51.822;-2.268;2023-11-19T19:59:34;38.08;;;4.66;;
17741;SDS011;8993;51.822;-2.268;2023-11-19T20:04:38;39.80;;;4.42;;
17741;SDS011;8993;51.822;-2.268;2023-11-19T20:09:42;40.49;;;4.99;;
17741;SDS011;8993;51.822;-2.268;2023-11-19T20:14:47;35.43;;;4.36;;
17741;SDS011;8993;51.822;-2.268;2023-11-19T20:19:51;29.90;;;3.89;;
17741;SDS011;8993;51.822;-2.268;2023-11-19T20:24:55;30.06;;;3.76;;
17741;SDS011;8993;51.822;-2.268;2023-11-19T20:30:00;25.61;;;2.74;;
17741;SDS011;8993;51.822;-2.268;2023-11-19T20:35:04;22.86;;;2.54;;
17741;SDS011;8993;51.822;-2.268;2023-11-19T20:40:08;22.52;;;2.42;;
17741;SDS011;8993;51.822;-2.268;2023-11-19T20:45:13;20.62;;;2.08;;
17741;SDS011;8993;51.822;-2.268;2023-11-19T20:50:17;17.90;;;2.13;;
17741;SDS011;8993;51.822;-2.268;2023-11-19T20:55:21;25.34;;;2.41;;
17741;SDS011;8993;51.822;-2.268;2023-11-19T21:00:26;20.64;;;2.36;;
17741;SDS011;8993;51.822;-2.268;2023-11-19T21:05:30;24.45;;;2.49;;
17741;SDS011;8993;51.822;-2.268;2023-11-19T21:10:34;23.13;;;2.77;;
17741;SDS011;8993;51.822;-2.268;2023-11-19T21:15:40;21.29;;;2.83;;
17741;SDS011;8993;51.822;-2.268;2023-11-19T21:20:43;21.77;;;2.43;;
17741;SDS011;8993;51.822;-2.268;2023-11-19T21:25:48;27.74;;;2.92;;
17741;SDS011;8993;51.822;-2.268;2023-11-19T21:30:53;28.93;;;3.24;;
17741;SDS011;8993;51.822;-2.268;2023-11-19T21:35:56;26.97;;;3.03;;
17741;SDS011;8993;51.822;-2.268;2023-11-19T21:41:01;24.74;;;2.90;;
17741;SDS011;8993;51.822;-2.268;2023-11-19T21:46:05;30.71;;;3.25;;
17741;SDS011;8993;51.822;-2.268;2023-11-19T21:51:10;30.39;;;2.86;;
17741;SDS011;8993;51.822;-2.268;2023-11-19T21:56:14;27.41;;;2.97;;
17741;SDS011;8993;51.822;-2.268;2023-11-19T22:01:18;26.81;;;3.09;;
17741;SDS011;8993;51.822;-2.268;2023-11-19T22:06:23;28.03;;;3.22;;
17741;SDS011;8993;51.822;-2.268;2023-11-19T22:11:27;26.27;;;2.90;;
17741;SDS011;8993;51.822;-2.268;2023-11-19T22:16:32;28.18;;;3.12;;
17741;SDS011;8993;51.822;-2.268;2023-11-19T22:21:36;28.29;;;3.13;;
17741;SDS011;8993;51.822;-2.268;2023-11-19T22:26:40;29.92;;;3.26;;
17741;SDS011;8993;51.822;-2.268;2023-11-19T22:31:45;30.85;;;3.25;;
17741;SDS011;8993;51.822;-2.268;2023-11-19T22:36:49;29.33;;;3.00;;
17741;SDS011;8993;51.822;-2.268;2023-11-19T22:41:53;32.57;;;3.62;;
17741;SDS011;8993;51.822;-2.268;2023-11-19T22:46:58;37.82;;;3.98;;
17741;SDS011;8993;51.822;-2.268;2023-11-19T22:52:02;36.87;;;3.72;;
17741;SDS011;8993;51.822;-2.268;2023-11-19T22:57:06;39.46;;;4.44;;
17741;SDS011;8993;51.822;-2.268;2023-11-19T23:02:11;53.66;;;5.95;;
17741;SDS011;8993;51.822;-2.268;2023-11-19T23:07:15;52.91;;;5.55;;
17741;SDS011;8993;51.822;-2.268;2023-11-19T23:12:20;46.22;;;5.11;;
17741;SDS011;8993;51.822;-2.268;2023-11-19T23:17:25;54.00;;;5.80;;
17741;SDS011;8993;51.822;-2.268;2023-11-19T23:22:29;48.26;;;5.49;;
17741;SDS011;8993;51.822;-2.268;2023-11-19T23:27:33;48.91;;;5.03;;
17741;SDS011;8993;51.822;-2.268;2023-11-19T23:32:38;50.30;;;5.46;;
17741;SDS011;8993;51.822;-2.268;2023-11-19T23:37:42;47.55;;;5.08;;
17741;SDS011;8993;51.822;-2.268;2023-11-19T23:42:46;49.26;;;5.55;;
17741;SDS011;8993;51.822;-2.268;2023-11-19T23:47:51;51.91;;;5.29;;
17741;SDS011;8993;51.822;-2.268;2023-11-19T23:52:55;54.11;;;5.61;;
17741;SDS011;8993;51.822;-2.268;2023-11-19T23:57:59;58.01;;;6.62;;
